sensor_id;sensor_type;location;lat;lon;timestamp;P1;durP1;ratioP1;P2;durP2;ratioP2
20287;SDS011;10303;51.960;8.372;2023-05-07T00:01:14;5.27;;;3.90;;
20287;SDS011;10303;51.960;8.372;2023-05-07T00:03:40;5.50;;;4.50;;
20287;SDS011;10303;51.960;8.372;2023-05-07T00:06:06;4.03;;;3.73;;
20287;SDS011;10303;51.960;8.372;2023-05-07T00:08:32;5.33;;;4.80;;
20287;SDS011;10303;51.960;8.372;2023-05-07T00:10:58;5.03;;;4.60;;
20287;SDS011;10303;51.960;8.372;2023-05-07T00:13:24;5.37;;;4.83;;
20287;SDS011;10303;51.960;8.372;2023-05-07T00:15:50;5.33;;;4.83;;
20287;SDS011;10303;51.960;8.372;2023-05-07T00:18:16;4.93;;;4.47;;
20287;SDS011;10303;51.960;8.372;2023-05-07T00:20:46;5.50;;;4.17;;
20287;SDS011;10303;51.960;8.372;2023-05-07T00:23:12;7.10;;;5.43;;
20287;SDS011;10303;51.960;8.372;2023-05-07T00:25:38;5.50;;;5.00;;
20287;SDS011;10303;51.960;8.372;2023-05-07T00:28:04;5.00;;;4.50;;
20287;SDS011;10303;51.960;8.372;2023-05-07T00:30:30;4.73;;;4.30;;
20287;SDS011;10303;51.960;8.372;2023-05-07T00:32:56;4.47;;;3.97;;
20287;SDS011;10303;51.960;8.372;2023-05-07T00:35:22;4.47;;;4.07;;
20287;SDS011;10303;51.960;8.372;2023-05-07T00:37:48;5.40;;;4.90;;
20287;SDS011;10303;51.960;8.372;2023-05-07T00:40:14;4.77;;;4.23;;
20287;SDS011;10303;51.960;8.372;2023-05-07T00:42:40;4.50;;;4.10;;
20287;SDS011;10303;51.960;8.372;2023-05-07T00:45:06;5.93;;;4.50;;
20287;SDS011;10303;51.960;8.372;2023-05-07T00:47:33;5.90;;;5.37;;
20287;SDS011;10303;51.960;8.372;2023-05-07T00:49:59;6.10;;;5.20;;
20287;SDS011;10303;51.960;8.372;2023-05-07T00:52:25;6.03;;;4.63;;
20287;SDS011;10303;51.960;8.372;2023-05-07T00:54:52;8.27;;;4.37;;
20287;SDS011;10303;51.960;8.372;2023-05-07T00:57:20;4.67;;;4.27;;
20287;SDS011;10303;51.960;8.372;2023-05-07T00:59:47;5.87;;;4.87;;
20287;SDS011;10303;51.960;8.372;2023-05-07T01:02:14;4.67;;;4.27;;
20287;SDS011;10303;51.960;8.372;2023-05-07T01:04:40;5.17;;;4.70;;
20287;SDS011;10303;51.960;8.372;2023-05-07T01:07:06;5.60;;;5.03;;
20287;SDS011;10303;51.960;8.372;2023-05-07T01:09:33;5.37;;;4.67;;
20287;SDS011;10303;51.960;8.372;2023-05-07T01:12:01;4.97;;;4.57;;
20287;SDS011;10303;51.960;8.372;2023-05-07T01:14:28;4.67;;;4.13;;
20287;SDS011;10303;51.960;8.372;2023-05-07T01:16:56;7.70;;;6.27;;
20287;SDS011;10303;51.960;8.372;2023-05-07T01:19:23;5.10;;;4.63;;
20287;SDS011;10303;51.960;8.372;2023-05-07T01:21:49;4.60;;;4.20;;
20287;SDS011;10303;51.960;8.372;2023-05-07T01:24:19;5.83;;;4.10;;
20287;SDS011;10303;51.960;8.372;2023-05-07T01:26:46;5.67;;;4.93;;
20287;SDS011;10303;51.960;8.372;2023-05-07T01:29:15;4.77;;;4.37;;
20287;SDS011;10303;51.960;8.372;2023-05-07T01:31:41;4.83;;;4.27;;
20287;SDS011;10303;51.960;8.372;2023-05-07T01:34:08;5.80;;;5.10;;
20287;SDS011;10303;51.960;8.372;2023-05-07T01:36:38;5.10;;;4.53;;
20287;SDS011;10303;51.960;8.372;2023-05-07T01:39:07;4.07;;;3.73;;
20287;SDS011;10303;51.960;8.372;2023-05-07T01:41:35;6.40;;;5.77;;
20287;SDS011;10303;51.960;8.372;2023-05-07T01:44:03;5.40;;;4.67;;
20287;SDS011;10303;51.960;8.372;2023-05-07T01:46:30;6.00;;;5.40;;
20287;SDS011;10303;51.960;8.372;2023-05-07T01:48:58;6.53;;;5.33;;
20287;SDS011;10303;51.960;8.372;2023-05-07T01:51:24;6.00;;;5.17;;
20287;SDS011;10303;51.960;8.372;2023-05-07T01:53:51;5.00;;;4.53;;
20287;SDS011;10303;51.960;8.372;2023-05-07T01:56:19;6.00;;;4.77;;
20287;SDS011;10303;51.960;8.372;2023-05-07T01:58:46;6.37;;;5.40;;
20287;SDS011;10303;51.960;8.372;2023-05-07T02:01:13;5.30;;;4.87;;
20287;SDS011;10303;51.960;8.372;2023-05-07T02:03:40;6.33;;;4.47;;
20287;SDS011;10303;51.960;8.372;2023-05-07T02:06:13;4.70;;;4.27;;
20287;SDS011;10303;51.960;8.372;2023-05-07T02:08:39;6.50;;;5.87;;
20287;SDS011;10303;51.960;8.372;2023-05-07T02:11:05;7.47;;;6.17;;
20287;SDS011;10303;51.960;8.372;2023-05-07T02:13:32;9.27;;;5.50;;
20287;SDS011;10303;51.960;8.372;2023-05-07T02:16:02;10.27;;;6.70;;
20287;SDS011;10303;51.960;8.372;2023-05-07T02:18:29;9.43;;;6.30;;
20287;SDS011;10303;51.960;8.372;2023-05-07T02:20:55;7.00;;;4.87;;
20287;SDS011;10303;51.960;8.372;2023-05-07T02:23:21;6.07;;;5.43;;
20287;SDS011;10303;51.960;8.372;2023-05-07T02:25:47;6.80;;;6.10;;
20287;SDS011;10303;51.960;8.372;2023-05-07T02:28:13;6.97;;;5.37;;
20287;SDS011;10303;51.960;8.372;2023-05-07T02:30:53;7.07;;;5.00;;
20287;SDS011;10303;51.960;8.372;2023-05-07T02:33:21;7.00;;;5.50;;
20287;SDS011;10303;51.960;8.372;2023-05-07T02:35:47;5.27;;;4.77;;
20287;SDS011;10303;51.960;8.372;2023-05-07T02:38:15;7.57;;;6.17;;
20287;SDS011;10303;51.960;8.372;2023-05-07T02:40:41;6.57;;;5.87;;
20287;SDS011;10303;51.960;8.372;2023-05-07T02:43:07;4.70;;;4.30;;
20287;SDS011;10303;51.960;8.372;2023-05-07T02:45:33;5.67;;;4.93;;
20287;SDS011;10303;51.960;8.372;2023-05-07T02:48:00;5.10;;;4.60;;
20287;SDS011;10303;51.960;8.372;2023-05-07T02:50:26;6.33;;;5.70;;
20287;SDS011;10303;51.960;8.372;2023-05-07T02:52:54;5.43;;;4.93;;
20287;SDS011;10303;51.960;8.372;2023-05-07T02:55:21;8.93;;;5.40;;
20287;SDS011;10303;51.960;8.372;2023-05-07T02:57:47;5.20;;;4.70;;
20287;SDS011;10303;51.960;8.372;2023-05-07T03:00:14;5.17;;;4.67;;
20287;SDS011;10303;51.960;8.372;2023-05-07T03:03:00;5.23;;;4.73;;
20287;SDS011;10303;51.960;8.372;2023-05-07T03:05:26;5.03;;;4.53;;
20287;SDS011;10303;51.960;8.372;2023-05-07T03:07:52;5.53;;;4.70;;
20287;SDS011;10303;51.960;8.372;2023-05-07T03:10:18;5.57;;;5.03;;
20287;SDS011;10303;51.960;8.372;2023-05-07T03:12:44;4.93;;;4.43;;
20287;SDS011;10303;51.960;8.372;2023-05-07T03:15:15;5.77;;;5.00;;
20287;SDS011;10303;51.960;8.372;2023-05-07T03:17:42;7.43;;;5.77;;
20287;SDS011;10303;51.960;8.372;2023-05-07T03:20:08;4.87;;;4.37;;
20287;SDS011;10303;51.960;8.372;2023-05-07T03:22:35;6.13;;;4.97;;
20287;SDS011;10303;51.960;8.372;2023-05-07T03:25:01;6.97;;;5.33;;
20287;SDS011;10303;51.960;8.372;2023-05-07T03:27:27;5.70;;;5.17;;
20287;SDS011;10303;51.960;8.372;2023-05-07T03:29:53;6.00;;;5.47;;
20287;SDS011;10303;51.960;8.372;2023-05-07T03:32:19;6.37;;;5.13;;
20287;SDS011;10303;51.960;8.372;2023-05-07T03:34:46;7.30;;;5.90;;
20287;SDS011;10303;51.960;8.372;2023-05-07T03:37:12;6.83;;;5.87;;
20287;SDS011;10303;51.960;8.372;2023-05-07T03:39:41;7.23;;;5.03;;
20287;SDS011;10303;51.960;8.372;2023-05-07T03:42:09;5.80;;;4.70;;
20287;SDS011;10303;51.960;8.372;2023-05-07T03:44:36;5.47;;;4.97;;
20287;SDS011;10303;51.960;8.372;2023-05-07T03:47:02;5.90;;;5.00;;
20287;SDS011;10303;51.960;8.372;2023-05-07T03:49:31;6.93;;;6.20;;
20287;SDS011;10303;51.960;8.372;2023-05-07T03:51:58;6.87;;;6.03;;
20287;SDS011;10303;51.960;8.372;2023-05-07T03:54:24;7.53;;;5.70;;
20287;SDS011;10303;51.960;8.372;2023-05-07T03:56:50;6.73;;;5.87;;
20287;SDS011;10303;51.960;8.372;2023-05-07T03:59:17;7.13;;;5.20;;
20287;SDS011;10303;51.960;8.372;2023-05-07T04:01:45;6.07;;;5.33;;
20287;SDS011;10303;51.960;8.372;2023-05-07T04:04:15;6.33;;;5.17;;
20287;SDS011;10303;51.960;8.372;2023-05-07T04:06:41;8.20;;;5.87;;
20287;SDS011;10303;51.960;8.372;2023-05-07T04:09:07;7.33;;;5.30;;
20287;SDS011;10303;51.960;8.372;2023-05-07T04:11:36;7.37;;;5.60;;
20287;SDS011;10303;51.960;8.372;2023-05-07T04:14:03;6.73;;;5.60;;
20287;SDS011;10303;51.960;8.372;2023-05-07T04:16:29;11.17;;;5.60;;
20287;SDS011;10303;51.960;8.372;2023-05-07T04:18:55;7.13;;;4.83;;
20287;SDS011;10303;51.960;8.372;2023-05-07T04:21:21;5.60;;;5.03;;
20287;SDS011;10303;51.960;8.372;2023-05-07T04:23:49;5.90;;;5.10;;
20287;SDS011;10303;51.960;8.372;2023-05-07T04:26:15;8.30;;;4.87;;
20287;SDS011;10303;51.960;8.372;2023-05-07T04:28:43;5.27;;;4.77;;
20287;SDS011;10303;51.960;8.372;2023-05-07T04:31:10;7.40;;;6.10;;
20287;SDS011;10303;51.960;8.372;2023-05-07T04:33:37;4.97;;;4.43;;
20287;SDS011;10303;51.960;8.372;2023-05-07T04:36:05;5.87;;;4.70;;
20287;SDS011;10303;51.960;8.372;2023-05-07T04:38:37;4.93;;;4.47;;
20287;SDS011;10303;51.960;8.372;2023-05-07T04:41:04;6.20;;;4.73;;
20287;SDS011;10303;51.960;8.372;2023-05-07T04:43:35;6.20;;;4.70;;
20287;SDS011;10303;51.960;8.372;2023-05-07T04:46:01;5.50;;;4.53;;
20287;SDS011;10303;51.960;8.372;2023-05-07T04:48:28;5.97;;;5.00;;
20287;SDS011;10303;51.960;8.372;2023-05-07T04:50:56;5.53;;;4.93;;
20287;SDS011;10303;51.960;8.372;2023-05-07T04:53:22;5.57;;;4.57;;
20287;SDS011;10303;51.960;8.372;2023-05-07T04:55:54;4.93;;;4.37;;
20287;SDS011;10303;51.960;8.372;2023-05-07T04:58:31;5.20;;;4.70;;
20287;SDS011;10303;51.960;8.372;2023-05-07T05:00:58;6.67;;;5.27;;
20287;SDS011;10303;51.960;8.372;2023-05-07T05:03:24;7.60;;;5.83;;
20287;SDS011;10303;51.960;8.372;2023-05-07T05:05:50;5.80;;;4.63;;
20287;SDS011;10303;51.960;8.372;2023-05-07T05:08:18;5.63;;;4.53;;
20287;SDS011;10303;51.960;8.372;2023-05-07T05:10:44;5.23;;;4.60;;
20287;SDS011;10303;51.960;8.372;2023-05-07T05:13:10;4.93;;;4.43;;
20287;SDS011;10303;51.960;8.372;2023-05-07T05:15:38;5.23;;;4.73;;
20287;SDS011;10303;51.960;8.372;2023-05-07T05:18:04;8.03;;;4.60;;
20287;SDS011;10303;51.960;8.372;2023-05-07T05:20:31;5.60;;;4.50;;
20287;SDS011;10303;51.960;8.372;2023-05-07T05:22:57;7.13;;;5.50;;
20287;SDS011;10303;51.960;8.372;2023-05-07T05:25:23;7.00;;;5.20;;
20287;SDS011;10303;51.960;8.372;2023-05-07T05:27:49;5.73;;;5.03;;
20287;SDS011;10303;51.960;8.372;2023-05-07T05:30:15;6.73;;;4.77;;
20287;SDS011;10303;51.960;8.372;2023-05-07T05:32:44;7.80;;;5.70;;
20287;SDS011;10303;51.960;8.372;2023-05-07T05:35:10;6.17;;;5.23;;
20287;SDS011;10303;51.960;8.372;2023-05-07T05:37:38;5.33;;;4.73;;
20287;SDS011;10303;51.960;8.372;2023-05-07T05:40:05;6.97;;;5.87;;
20287;SDS011;10303;51.960;8.372;2023-05-07T05:42:32;6.97;;;6.20;;
20287;SDS011;10303;51.960;8.372;2023-05-07T05:44:59;8.27;;;5.87;;
20287;SDS011;10303;51.960;8.372;2023-05-07T05:47:26;6.37;;;5.50;;
20287;SDS011;10303;51.960;8.372;2023-05-07T05:49:54;9.33;;;7.80;;
20287;SDS011;10303;51.960;8.372;2023-05-07T05:52:20;7.27;;;6.00;;
20287;SDS011;10303;51.960;8.372;2023-05-07T05:54:49;5.87;;;5.07;;
20287;SDS011;10303;51.960;8.372;2023-05-07T05:57:16;7.10;;;5.53;;
20287;SDS011;10303;51.960;8.372;2023-05-07T05:59:43;5.87;;;4.80;;
20287;SDS011;10303;51.960;8.372;2023-05-07T06:02:10;5.70;;;5.10;;
20287;SDS011;10303;51.960;8.372;2023-05-07T06:04:36;7.10;;;4.77;;
20287;SDS011;10303;51.960;8.372;2023-05-07T06:07:03;8.63;;;6.43;;
20287;SDS011;10303;51.960;8.372;2023-05-07T06:09:29;6.53;;;5.77;;
20287;SDS011;10303;51.960;8.372;2023-05-07T06:11:55;6.03;;;5.03;;
20287;SDS011;10303;51.960;8.372;2023-05-07T06:14:21;6.93;;;6.10;;
20287;SDS011;10303;51.960;8.372;2023-05-07T06:16:47;6.40;;;4.90;;
20287;SDS011;10303;51.960;8.372;2023-05-07T06:19:13;8.00;;;6.33;;
20287;SDS011;10303;51.960;8.372;2023-05-07T06:21:40;6.50;;;5.53;;
20287;SDS011;10303;51.960;8.372;2023-05-07T06:24:06;5.20;;;4.60;;
20287;SDS011;10303;51.960;8.372;2023-05-07T06:26:32;5.43;;;4.93;;
20287;SDS011;10303;51.960;8.372;2023-05-07T06:28:58;6.13;;;5.40;;
20287;SDS011;10303;51.960;8.372;2023-05-07T06:31:28;9.07;;;6.10;;
20287;SDS011;10303;51.960;8.372;2023-05-07T06:34:05;8.13;;;5.97;;
20287;SDS011;10303;51.960;8.372;2023-05-07T06:36:35;6.23;;;5.17;;
20287;SDS011;10303;51.960;8.372;2023-05-07T06:39:10;9.03;;;6.10;;
20287;SDS011;10303;51.960;8.372;2023-05-07T06:41:36;6.40;;;4.70;;
20287;SDS011;10303;51.960;8.372;2023-05-07T06:44:07;6.40;;;5.53;;
20287;SDS011;10303;51.960;8.372;2023-05-07T06:46:41;6.93;;;5.10;;
20287;SDS011;10303;51.960;8.372;2023-05-07T06:49:07;6.90;;;5.83;;
20287;SDS011;10303;51.960;8.372;2023-05-07T06:51:34;12.73;;;7.17;;
20287;SDS011;10303;51.960;8.372;2023-05-07T06:54:02;7.40;;;5.57;;
20287;SDS011;10303;51.960;8.372;2023-05-07T06:56:30;9.47;;;5.50;;
20287;SDS011;10303;51.960;8.372;2023-05-07T06:58:57;8.90;;;6.13;;
20287;SDS011;10303;51.960;8.372;2023-05-07T07:01:25;5.80;;;5.23;;
20287;SDS011;10303;51.960;8.372;2023-05-07T07:03:51;6.03;;;5.43;;
20287;SDS011;10303;51.960;8.372;2023-05-07T07:06:19;10.37;;;6.73;;
20287;SDS011;10303;51.960;8.372;2023-05-07T07:08:45;10.53;;;6.47;;
20287;SDS011;10303;51.960;8.372;2023-05-07T07:11:15;5.73;;;5.00;;
20287;SDS011;10303;51.960;8.372;2023-05-07T07:13:41;8.73;;;5.40;;
20287;SDS011;10303;51.960;8.372;2023-05-07T07:16:08;7.97;;;6.40;;
20287;SDS011;10303;51.960;8.372;2023-05-07T07:18:35;7.27;;;5.37;;
20287;SDS011;10303;51.960;8.372;2023-05-07T07:21:01;6.73;;;5.13;;
20287;SDS011;10303;51.960;8.372;2023-05-07T07:23:27;6.93;;;5.23;;
20287;SDS011;10303;51.960;8.372;2023-05-07T07:25:53;5.03;;;4.57;;
20287;SDS011;10303;51.960;8.372;2023-05-07T07:28:20;5.50;;;4.63;;
20287;SDS011;10303;51.960;8.372;2023-05-07T07:30:47;6.37;;;5.33;;
20287;SDS011;10303;51.960;8.372;2023-05-07T07:33:15;5.63;;;4.57;;
20287;SDS011;10303;51.960;8.372;2023-05-07T07:35:42;6.57;;;4.90;;
20287;SDS011;10303;51.960;8.372;2023-05-07T07:38:09;5.70;;;5.13;;
20287;SDS011;10303;51.960;8.372;2023-05-07T07:40:35;5.50;;;4.57;;
20287;SDS011;10303;51.960;8.372;2023-05-07T07:43:03;5.27;;;4.40;;
20287;SDS011;10303;51.960;8.372;2023-05-07T07:45:30;7.87;;;4.57;;
20287;SDS011;10303;51.960;8.372;2023-05-07T07:47:56;4.73;;;4.30;;
20287;SDS011;10303;51.960;8.372;2023-05-07T07:50:23;4.93;;;4.43;;
20287;SDS011;10303;51.960;8.372;2023-05-07T07:52:49;5.97;;;4.83;;
20287;SDS011;10303;51.960;8.372;2023-05-07T07:55:19;6.20;;;4.70;;
20287;SDS011;10303;51.960;8.372;2023-05-07T07:57:49;6.70;;;4.87;;
20287;SDS011;10303;51.960;8.372;2023-05-07T08:00:16;4.30;;;3.90;;
20287;SDS011;10303;51.960;8.372;2023-05-07T08:02:42;4.83;;;4.43;;
20287;SDS011;10303;51.960;8.372;2023-05-07T08:05:11;6.63;;;5.03;;
20287;SDS011;10303;51.960;8.372;2023-05-07T08:07:38;4.90;;;4.40;;
20287;SDS011;10303;51.960;8.372;2023-05-07T08:10:04;4.60;;;4.20;;
20287;SDS011;10303;51.960;8.372;2023-05-07T08:12:31;4.37;;;3.90;;
20287;SDS011;10303;51.960;8.372;2023-05-07T08:14:57;5.03;;;4.57;;
20287;SDS011;10303;51.960;8.372;2023-05-07T08:17:24;5.03;;;3.97;;
20287;SDS011;10303;51.960;8.372;2023-05-07T08:19:50;5.47;;;4.90;;
20287;SDS011;10303;51.960;8.372;2023-05-07T08:22:16;4.13;;;3.70;;
20287;SDS011;10303;51.960;8.372;2023-05-07T08:24:43;5.00;;;4.50;;
20287;SDS011;10303;51.960;8.372;2023-05-07T08:27:10;4.20;;;3.90;;
20287;SDS011;10303;51.960;8.372;2023-05-07T08:29:39;4.87;;;4.23;;
20287;SDS011;10303;51.960;8.372;2023-05-07T08:32:05;4.33;;;3.50;;
20287;SDS011;10303;51.960;8.372;2023-05-07T08:34:31;4.97;;;3.50;;
20287;SDS011;10303;51.960;8.372;2023-05-07T08:36:59;3.90;;;3.53;;
20287;SDS011;10303;51.960;8.372;2023-05-07T08:39:26;4.53;;;3.83;;
20287;SDS011;10303;51.960;8.372;2023-05-07T08:41:54;5.30;;;3.93;;
20287;SDS011;10303;51.960;8.372;2023-05-07T08:44:23;3.67;;;3.37;;
20287;SDS011;10303;51.960;8.372;2023-05-07T08:46:56;4.10;;;3.70;;
20287;SDS011;10303;51.960;8.372;2023-05-07T08:49:25;3.80;;;3.50;;
20287;SDS011;10303;51.960;8.372;2023-05-07T08:51:53;3.77;;;3.37;;
20287;SDS011;10303;51.960;8.372;2023-05-07T08:54:20;3.03;;;2.83;;
20287;SDS011;10303;51.960;8.372;2023-05-07T08:56:47;3.43;;;3.13;;
20287;SDS011;10303;51.960;8.372;2023-05-07T08:59:14;4.17;;;3.77;;
20287;SDS011;10303;51.960;8.372;2023-05-07T09:01:41;3.47;;;3.07;;
20287;SDS011;10303;51.960;8.372;2023-05-07T09:04:08;4.03;;;3.63;;
20287;SDS011;10303;51.960;8.372;2023-05-07T09:06:36;4.90;;;3.90;;
20287;SDS011;10303;51.960;8.372;2023-05-07T09:09:08;3.83;;;3.53;;
20287;SDS011;10303;51.960;8.372;2023-05-07T09:11:34;5.73;;;4.07;;
20287;SDS011;10303;51.960;8.372;2023-05-07T09:14:01;5.53;;;3.27;;
20287;SDS011;10303;51.960;8.372;2023-05-07T09:16:32;3.57;;;3.27;;
20287;SDS011;10303;51.960;8.372;2023-05-07T09:18:59;2.60;;;2.40;;
20287;SDS011;10303;51.960;8.372;2023-05-07T09:21:26;4.17;;;3.87;;
20287;SDS011;10303;51.960;8.372;2023-05-07T09:23:55;3.87;;;3.50;;
20287;SDS011;10303;51.960;8.372;2023-05-07T09:26:28;4.47;;;3.67;;
20287;SDS011;10303;51.960;8.372;2023-05-07T09:28:54;3.65;;;3.35;;
20287;SDS011;10303;51.960;8.372;2023-05-07T09:31:21;3.92;;;3.55;;
20287;SDS011;10303;51.960;8.372;2023-05-07T09:33:48;3.78;;;3.30;;
20287;SDS011;10303;51.960;8.372;2023-05-07T09:36:15;3.60;;;3.30;;
20287;SDS011;10303;51.960;8.372;2023-05-07T09:38:43;3.92;;;3.63;;
20287;SDS011;10303;51.960;8.372;2023-05-07T09:41:12;4.35;;;3.97;;
20287;SDS011;10303;51.960;8.372;2023-05-07T09:44:01;3.35;;;3.00;;
20287;SDS011;10303;51.960;8.372;2023-05-07T09:46:34;4.03;;;3.72;;
20287;SDS011;10303;51.960;8.372;2023-05-07T09:49:16;5.97;;;3.13;;
20287;SDS011;10303;51.960;8.372;2023-05-07T09:51:51;3.28;;;3.08;;
20287;SDS011;10303;51.960;8.372;2023-05-07T09:54:20;3.13;;;2.83;;
20287;SDS011;10303;51.960;8.372;2023-05-07T09:56:50;2.90;;;2.70;;
20287;SDS011;10303;51.960;8.372;2023-05-07T09:59:24;3.55;;;3.25;;
20287;SDS011;10303;51.960;8.372;2023-05-07T10:01:51;3.95;;;3.55;;
20287;SDS011;10303;51.960;8.372;2023-05-07T10:04:22;5.28;;;3.10;;
20287;SDS011;10303;51.960;8.372;2023-05-07T10:06:50;2.92;;;2.67;;
20287;SDS011;10303;51.960;8.372;2023-05-07T10:09:17;3.97;;;3.40;;
20287;SDS011;10303;51.960;8.372;2023-05-07T10:11:45;3.80;;;3.50;;
20287;SDS011;10303;51.960;8.372;2023-05-07T10:14:14;2.97;;;2.78;;
20287;SDS011;10303;51.960;8.372;2023-05-07T10:16:41;3.10;;;2.90;;
20287;SDS011;10303;51.960;8.372;2023-05-07T10:19:12;3.55;;;3.33;;
20287;SDS011;10303;51.960;8.372;2023-05-07T10:22:05;4.00;;;3.58;;
20287;SDS011;10303;51.960;8.372;2023-05-07T10:24:35;3.70;;;3.40;;
20287;SDS011;10303;51.960;8.372;2023-05-07T10:27:08;5.38;;;3.10;;
20287;SDS011;10303;51.960;8.372;2023-05-07T10:32:35;2.78;;;2.60;;
20287;SDS011;10303;51.960;8.372;2023-05-07T10:35:17;5.35;;;3.70;;
20287;SDS011;10303;51.960;8.372;2023-05-07T10:37:49;5.78;;;3.50;;
20287;SDS011;10303;51.960;8.372;2023-05-07T10:40:15;2.92;;;2.72;;
20287;SDS011;10303;51.960;8.372;2023-05-07T10:46:01;3.75;;;3.45;;
20287;SDS011;10303;51.960;8.372;2023-05-07T10:51:29;3.17;;;2.92;;
20287;SDS011;10303;51.960;8.372;2023-05-07T10:56:43;3.58;;;3.28;;
20287;SDS011;10303;51.960;8.372;2023-05-07T11:04:41;3.70;;;3.40;;
20287;SDS011;10303;51.960;8.372;2023-05-07T11:07:28;3.92;;;3.47;;
20287;SDS011;10303;51.960;8.372;2023-05-07T11:10:10;3.60;;;3.30;;
20287;SDS011;10303;51.960;8.372;2023-05-07T11:12:52;3.28;;;2.97;;
20287;SDS011;10303;51.960;8.372;2023-05-07T11:15:34;2.90;;;2.70;;
20287;SDS011;10303;51.960;8.372;2023-05-07T11:18:17;3.83;;;3.53;;
20287;SDS011;10303;51.960;8.372;2023-05-07T11:20:46;3.00;;;2.80;;
20287;SDS011;10303;51.960;8.372;2023-05-07T11:26:50;3.17;;;2.92;;
20287;SDS011;10303;51.960;8.372;2023-05-07T11:29:19;4.05;;;3.67;;
20287;SDS011;10303;51.960;8.372;2023-05-07T11:31:52;3.72;;;3.47;;
20287;SDS011;10303;51.960;8.372;2023-05-07T11:34:23;3.20;;;3.00;;
20287;SDS011;10303;51.960;8.372;2023-05-07T11:36:53;3.08;;;2.88;;
20287;SDS011;10303;51.960;8.372;2023-05-07T11:39:31;2.80;;;2.60;;
20287;SDS011;10303;51.960;8.372;2023-05-07T11:42:01;3.30;;;3.10;;
20287;SDS011;10303;51.960;8.372;2023-05-07T11:44:44;3.17;;;2.85;;
20287;SDS011;10303;51.960;8.372;2023-05-07T11:47:11;2.65;;;2.45;;
20287;SDS011;10303;51.960;8.372;2023-05-07T11:49:43;4.05;;;2.60;;
20287;SDS011;10303;51.960;8.372;2023-05-07T11:52:13;2.35;;;2.13;;
20287;SDS011;10303;51.960;8.372;2023-05-07T11:54:39;2.67;;;2.47;;
20287;SDS011;10303;51.960;8.372;2023-05-07T11:57:05;2.92;;;2.00;;
20287;SDS011;10303;51.960;8.372;2023-05-07T11:59:39;2.42;;;2.22;;
20287;SDS011;10303;51.960;8.372;2023-05-07T12:02:06;2.22;;;2.13;;
20287;SDS011;10303;51.960;8.372;2023-05-07T12:04:33;3.55;;;2.42;;
20287;SDS011;10303;51.960;8.372;2023-05-07T12:06:59;1.80;;;1.70;;
20287;SDS011;10303;51.960;8.372;2023-05-07T12:09:25;2.53;;;2.33;;
20287;SDS011;10303;51.960;8.372;2023-05-07T12:11:51;2.78;;;2.58;;
20287;SDS011;10303;51.960;8.372;2023-05-07T12:14:18;2.20;;;2.10;;
20287;SDS011;10303;51.960;8.372;2023-05-07T12:16:44;2.50;;;2.30;;
20287;SDS011;10303;51.960;8.372;2023-05-07T12:19:10;2.20;;;2.10;;
20287;SDS011;10303;51.960;8.372;2023-05-07T12:21:37;2.08;;;1.98;;
20287;SDS011;10303;51.960;8.372;2023-05-07T12:24:04;2.50;;;2.30;;
20287;SDS011;10303;51.960;8.372;2023-05-07T12:26:31;2.10;;;1.98;;
20287;SDS011;10303;51.960;8.372;2023-05-07T12:28:57;2.20;;;2.10;;
20287;SDS011;10303;51.960;8.372;2023-05-07T12:31:25;2.00;;;1.90;;
20287;SDS011;10303;51.960;8.372;2023-05-07T12:33:51;2.20;;;2.10;;
20287;SDS011;10303;51.960;8.372;2023-05-07T12:36:18;2.45;;;1.95;;
20287;SDS011;10303;51.960;8.372;2023-05-07T12:38:44;2.28;;;2.10;;
20287;SDS011;10303;51.960;8.372;2023-05-07T12:41:10;2.28;;;2.05;;
20287;SDS011;10303;51.960;8.372;2023-05-07T12:43:37;1.80;;;1.70;;
20287;SDS011;10303;51.960;8.372;2023-05-07T12:46:04;2.00;;;1.90;;
20287;SDS011;10303;51.960;8.372;2023-05-07T12:48:32;2.03;;;1.92;;
20287;SDS011;10303;51.960;8.372;2023-05-07T12:51:00;1.75;;;1.65;;
20287;SDS011;10303;51.960;8.372;2023-05-07T12:53:28;1.60;;;1.50;;
20287;SDS011;10303;51.960;8.372;2023-05-07T12:55:57;1.50;;;1.40;;
20287;SDS011;10303;51.960;8.372;2023-05-07T12:58:29;1.10;;;1.10;;
20287;SDS011;10303;51.960;8.372;2023-05-07T13:00:59;2.53;;;1.67;;
20287;SDS011;10303;51.960;8.372;2023-05-07T13:03:30;1.50;;;1.40;;
20287;SDS011;10303;51.960;8.372;2023-05-07T13:05:58;1.80;;;1.70;;
20287;SDS011;10303;51.960;8.372;2023-05-07T13:11:07;1.48;;;1.38;;
20287;SDS011;10303;51.960;8.372;2023-05-07T13:13:35;1.70;;;1.60;;
20287;SDS011;10303;51.960;8.372;2023-05-07T13:16:04;1.65;;;1.55;;
20287;SDS011;10303;51.960;8.372;2023-05-07T13:18:32;1.50;;;1.40;;
20287;SDS011;10303;51.960;8.372;2023-05-07T13:21:00;1.38;;;1.30;;
20287;SDS011;10303;51.960;8.372;2023-05-07T13:23:26;2.13;;;1.92;;
20287;SDS011;10303;51.960;8.372;2023-05-07T13:25:53;3.72;;;1.67;;
20287;SDS011;10303;51.960;8.372;2023-05-07T13:28:19;1.60;;;1.50;;
20287;SDS011;10303;51.960;8.372;2023-05-07T13:30:45;2.00;;;1.40;;
20287;SDS011;10303;51.960;8.372;2023-05-07T13:33:12;1.60;;;1.50;;
20287;SDS011;10303;51.960;8.372;2023-05-07T13:35:38;1.40;;;1.30;;
20287;SDS011;10303;51.960;8.372;2023-05-07T13:38:04;1.85;;;1.75;;
20287;SDS011;10303;51.960;8.372;2023-05-07T13:40:30;1.45;;;1.35;;
20287;SDS011;10303;51.960;8.372;2023-05-07T13:42:57;1.45;;;1.35;;
20287;SDS011;10303;51.960;8.372;2023-05-07T13:45:25;1.30;;;1.20;;
20287;SDS011;10303;51.960;8.372;2023-05-07T13:47:52;2.00;;;1.90;;
20287;SDS011;10303;51.960;8.372;2023-05-07T13:50:17;1.70;;;1.60;;
20287;SDS011;10303;51.960;8.372;2023-05-07T13:52:44;1.88;;;1.58;;
20287;SDS011;10303;51.960;8.372;2023-05-07T13:55:19;1.77;;;1.67;;
20287;SDS011;10303;51.960;8.372;2023-05-07T13:57:47;2.05;;;1.95;;
20287;SDS011;10303;51.960;8.372;2023-05-07T14:00:23;1.73;;;1.63;;
20287;SDS011;10303;51.960;8.372;2023-05-07T14:02:50;1.83;;;1.73;;
20287;SDS011;10303;51.960;8.372;2023-05-07T14:05:16;1.80;;;1.70;;
20287;SDS011;10303;51.960;8.372;2023-05-07T14:07:42;1.70;;;1.60;;
20287;SDS011;10303;51.960;8.372;2023-05-07T14:10:08;1.85;;;1.75;;
20287;SDS011;10303;51.960;8.372;2023-05-07T14:12:36;1.60;;;1.50;;
20287;SDS011;10303;51.960;8.372;2023-05-07T14:15:02;2.05;;;1.95;;
20287;SDS011;10303;51.960;8.372;2023-05-07T14:17:29;2.45;;;1.98;;
20287;SDS011;10303;51.960;8.372;2023-05-07T14:19:55;2.40;;;2.20;;
20287;SDS011;10303;51.960;8.372;2023-05-07T14:22:21;2.50;;;2.30;;
20287;SDS011;10303;51.960;8.372;2023-05-07T14:24:48;3.63;;;1.92;;
20287;SDS011;10303;51.960;8.372;2023-05-07T14:27:15;2.45;;;1.95;;
20287;SDS011;10303;51.960;8.372;2023-05-07T14:29:41;3.13;;;2.92;;
20287;SDS011;10303;51.960;8.372;2023-05-07T14:32:08;2.65;;;2.45;;
20287;SDS011;10303;51.960;8.372;2023-05-07T14:34:34;3.58;;;2.22;;
20287;SDS011;10303;51.960;8.372;2023-05-07T14:37:00;2.25;;;2.15;;
20287;SDS011;10303;51.960;8.372;2023-05-07T14:39:26;2.20;;;2.10;;
20287;SDS011;10303;51.960;8.372;2023-05-07T14:41:52;3.15;;;2.95;;
20287;SDS011;10303;51.960;8.372;2023-05-07T14:44:20;2.63;;;2.42;;
20287;SDS011;10303;51.960;8.372;2023-05-07T14:46:46;3.80;;;2.80;;
20287;SDS011;10303;51.960;8.372;2023-05-07T14:49:13;2.65;;;2.47;;
20287;SDS011;10303;51.960;8.372;2023-05-07T14:51:43;2.80;;;2.60;;
20287;SDS011;10303;51.960;8.372;2023-05-07T14:54:12;3.20;;;3.00;;
20287;SDS011;10303;51.960;8.372;2023-05-07T14:56:39;3.40;;;3.13;;
20287;SDS011;10303;51.960;8.372;2023-05-07T14:59:07;2.72;;;2.53;;
20287;SDS011;10303;51.960;8.372;2023-05-07T15:01:34;3.35;;;2.63;;
20287;SDS011;10303;51.960;8.372;2023-05-07T15:04:02;2.67;;;2.47;;
20287;SDS011;10303;51.960;8.372;2023-05-07T15:06:29;2.45;;;2.35;;
20287;SDS011;10303;51.960;8.372;2023-05-07T15:08:56;3.42;;;3.22;;
20287;SDS011;10303;51.960;8.372;2023-05-07T15:11:22;3.00;;;2.80;;
20287;SDS011;10303;51.960;8.372;2023-05-07T15:13:49;2.80;;;2.60;;
20287;SDS011;10303;51.960;8.372;2023-05-07T15:16:15;2.90;;;2.70;;